createdAt,value
2018-01-14T00:00:44.872Z,1.16
2018-01-14T00:01:49.432Z,1.13
2018-01-14T00:02:53.716Z,1.14
2018-01-14T00:03:58.466Z,1.20
2018-01-14T00:05:02.699Z,1.25
2018-01-14T00:06:06.936Z,1.20
2018-01-14T00:07:11.151Z,1.18
2018-01-14T00:08:16.365Z,1.20
2018-01-14T00:09:20.706Z,1.20
2018-01-14T00:10:24.906Z,1.19
2018-01-14T00:11:29.211Z,1.21
2018-01-14T00:12:33.430Z,1.23
2018-01-14T00:13:37.735Z,1.27
2018-01-14T00:14:42.350Z,1.25
2018-01-14T00:15:47.119Z,1.26
2018-01-14T00:16:51.397Z,1.28
2018-01-14T00:17:55.928Z,1.27
2018-01-14T00:19:00.192Z,1.19
2018-01-14T00:20:04.448Z,1.14
2018-01-14T00:21:08.714Z,1.10
2018-01-14T00:22:13.738Z,1.09
2018-01-14T00:23:18.047Z,1.11
2018-01-14T00:24:22.332Z,1.16
2018-01-14T00:25:26.680Z,1.16
2018-01-14T00:26:30.896Z,1.20
2018-01-14T00:27:35.387Z,1.14
2018-01-14T00:28:39.650Z,1.08
2018-01-14T00:29:43.880Z,1.13
2018-01-14T00:30:48.381Z,1.21
2018-01-14T00:31:52.826Z,1.19
2018-01-14T00:32:56.993Z,1.17
2018-01-14T00:34:01.734Z,1.11
2018-01-14T00:35:06.325Z,1.09
2018-01-14T00:36:10.625Z,1.11
2018-01-14T00:37:14.911Z,1.15
2018-01-14T00:38:19.174Z,1.14
2018-01-14T00:39:23.374Z,1.16
2018-01-14T00:40:27.974Z,1.18
2018-01-14T00:41:32.817Z,1.20
2018-01-14T00:42:37.148Z,1.18
2018-01-14T00:43:41.400Z,1.20
2018-01-14T00:44:46.171Z,1.21
2018-01-14T00:45:50.484Z,1.16
2018-01-14T00:46:55.701Z,1.12
2018-01-14T00:47:59.905Z,1.16
2018-01-14T00:49:04.093Z,1.20
2018-01-14T00:50:08.418Z,1.26
2018-01-14T00:51:12.804Z,1.30
2018-01-14T00:52:17.086Z,1.32
2018-01-14T00:53:21.343Z,1.44
2018-01-14T00:54:25.545Z,1.43
2018-01-14T00:55:29.723Z,1.43
2018-01-14T00:56:34.115Z,1.41
2018-01-14T00:57:38.307Z,1.34
2018-01-14T00:58:42.474Z,1.38
2018-01-14T00:59:47.715Z,1.40
2018-01-14T01:00:52.478Z,1.45
2018-01-14T01:01:56.939Z,1.40
2018-01-14T01:03:01.195Z,1.28
2018-01-14T01:04:05.374Z,1.33
2018-01-14T01:05:09.675Z,1.31
2018-01-14T01:06:14.275Z,1.29
2018-01-14T01:07:18.573Z,1.26
2018-01-14T01:08:22.896Z,1.25
2018-01-14T01:09:27.067Z,1.19
2018-01-14T01:10:31.268Z,1.22
2018-01-14T01:11:35.628Z,1.28
2018-01-14T01:12:41.098Z,1.31
2018-01-14T01:13:45.288Z,1.35
2018-01-14T01:14:50.277Z,1.29
2018-01-14T01:15:54.556Z,1.18
2018-01-14T01:16:58.806Z,1.28
2018-01-14T01:18:03.011Z,1.31
2018-01-14T01:19:07.466Z,1.30
2018-01-14T01:20:11.679Z,1.32
2018-01-14T01:21:15.876Z,1.35
2018-01-14T01:22:20.139Z,1.34
2018-01-14T01:23:24.318Z,1.34
2018-01-14T01:24:28.663Z,1.33
2018-01-14T01:25:33.025Z,1.34
2018-01-14T01:26:37.171Z,1.33
2018-01-14T01:27:41.427Z,1.32
2018-01-14T01:28:45.703Z,1.26
2018-01-14T01:29:49.950Z,1.16
2018-01-14T01:30:54.945Z,1.17
2018-01-14T01:31:59.346Z,1.16
2018-01-14T01:33:03.703Z,1.21
2018-01-14T01:34:08.078Z,1.18
2018-01-14T01:35:12.255Z,1.21
2018-01-14T01:36:16.536Z,1.24
2018-01-14T01:37:21.063Z,1.27
2018-01-14T01:38:25.392Z,1.28
2018-01-14T01:39:29.662Z,1.25
2018-01-14T01:40:33.896Z,1.21
2018-01-14T01:41:38.059Z,1.19
2018-01-14T01:42:42.366Z,1.21
2018-01-14T01:43:47.741Z,1.26
2018-01-14T01:44:51.926Z,1.20
2018-01-14T01:45:56.280Z,1.15
2018-01-14T01:47:00.481Z,1.19
2018-01-14T01:48:04.748Z,1.30
2018-01-14T01:49:09.065Z,1.35
2018-01-14T01:50:13.275Z,1.33
2018-01-14T01:51:17.559Z,1.28
2018-01-14T01:52:21.750Z,1.29
2018-01-14T01:53:26.077Z,1.37
2018-01-14T01:54:30.296Z,1.33
2018-01-14T01:55:34.516Z,1.31
2018-01-14T01:56:39.158Z,1.32
2018-01-14T01:57:44.238Z,1.33
2018-01-14T01:58:48.549Z,1.26
2018-01-14T01:59:52.726Z,1.26
2018-01-14T02:00:57.213Z,1.23
2018-01-14T02:02:02.003Z,1.27
2018-01-14T02:03:06.262Z,1.27
2018-01-14T02:04:10.471Z,1.34
2018-01-14T02:05:14.642Z,1.39
2018-01-14T02:06:18.976Z,1.36
2018-01-14T02:07:23.230Z,1.30
2018-01-14T02:08:27.440Z,1.28
2018-01-14T02:09:31.673Z,1.27
2018-01-14T02:10:35.864Z,1.31
2018-01-14T02:11:41.296Z,1.31
2018-01-14T02:12:46.454Z,1.23
2018-01-14T02:13:51.032Z,1.18
2018-01-14T02:14:55.357Z,1.19
2018-01-14T02:15:59.600Z,1.25
2018-01-14T02:17:03.769Z,1.21
2018-01-14T02:18:07.983Z,1.26
2018-01-14T02:19:12.515Z,1.25
2018-01-14T02:20:20.139Z,1.23
2018-01-14T02:21:24.379Z,1.27
2018-01-14T02:22:28.596Z,1.27
2018-01-14T02:23:32.814Z,1.34
2018-01-14T02:24:37.025Z,1.29
2018-01-14T02:25:41.666Z,1.26
2018-01-14T02:26:46.706Z,1.31
2018-01-14T02:27:50.882Z,1.27
2018-01-14T02:28:55.280Z,1.26
2018-01-14T02:29:59.494Z,1.20
2018-01-14T02:31:03.744Z,1.22
2018-01-14T02:32:08.221Z,1.20
2018-01-14T02:33:12.380Z,1.21
2018-01-14T02:34:16.526Z,1.25
2018-01-14T02:35:20.758Z,1.20
2018-01-14T02:36:24.958Z,1.12
2018-01-14T02:37:29.177Z,1.08
2018-01-14T02:38:33.368Z,1.07
2018-01-14T02:39:37.545Z,1.11
2018-01-14T02:40:41.714Z,1.15
2018-01-14T02:41:46.623Z,1.19
2018-01-14T02:42:51.099Z,1.19
2018-01-14T02:45:05.309Z,1.13
2018-01-14T02:46:09.760Z,1.09
2018-01-14T02:47:14.110Z,1.09
2018-01-14T02:48:18.388Z,1.09
2018-01-14T02:49:22.598Z,1.13
2018-01-14T02:50:27.085Z,1.16
2018-01-14T02:51:31.368Z,1.18
2018-01-14T02:52:35.584Z,1.16
2018-01-14T02:53:40.018Z,1.16
2018-01-14T02:54:44.375Z,1.16
2018-01-14T02:55:48.606Z,1.12
2018-01-14T02:56:52.901Z,1.10
2018-01-14T02:57:57.149Z,1.15
2018-01-14T02:59:01.452Z,1.19
2018-01-14T03:00:07.640Z,1.19
2018-01-14T03:01:12.229Z,1.23
2018-01-14T03:02:16.794Z,1.21
2018-01-14T03:03:20.909Z,1.29
2018-01-14T03:04:25.117Z,1.31
2018-01-14T03:05:29.409Z,1.30
2018-01-14T03:06:33.603Z,1.26
2018-01-14T03:07:37.839Z,1.25
2018-01-14T03:08:42.039Z,1.25
2018-01-14T03:09:46.187Z,1.37
2018-01-14T03:10:50.424Z,1.36
2018-01-14T03:11:54.543Z,1.42
2018-01-14T03:12:58.834Z,1.44
2018-01-14T03:14:03.043Z,1.46
2018-01-14T03:15:08.080Z,1.44
2018-01-14T03:16:12.655Z,1.38
2018-01-14T03:17:16.938Z,1.27
2018-01-14T03:18:21.063Z,1.27
2018-01-14T03:19:25.296Z,1.27
2018-01-14T03:20:29.911Z,1.26
2018-01-14T03:21:34.106Z,1.20
2018-01-14T03:22:38.428Z,1.21
2018-01-14T03:23:42.597Z,1.28
2018-01-14T03:24:46.737Z,1.22
2018-01-14T03:25:51.089Z,1.25
2018-01-14T03:26:55.650Z,1.22
2018-01-14T03:27:59.878Z,1.28
2018-01-14T03:29:04.022Z,1.30
2018-01-14T03:30:08.252Z,1.29
2018-01-14T03:31:13.103Z,1.27
2018-01-14T03:32:17.338Z,1.28
2018-01-14T03:33:21.797Z,1.33
2018-01-14T03:34:25.996Z,1.31
2018-01-14T03:35:30.182Z,1.32
2018-01-14T03:36:34.365Z,1.23
2018-01-14T03:37:38.632Z,1.20
2018-01-14T03:38:43.836Z,1.24
2018-01-14T03:39:49.357Z,1.21
2018-01-14T03:40:53.537Z,1.19
2018-01-14T03:41:57.675Z,1.20
2018-01-14T03:43:01.911Z,1.16
2018-01-14T03:44:07.335Z,1.12
2018-01-14T03:45:13.533Z,1.09
2018-01-14T03:46:18.106Z,1.15
2018-01-14T03:47:22.398Z,1.12
2018-01-14T03:48:26.607Z,1.09
2018-01-14T03:49:30.781Z,1.10
2018-01-14T03:50:34.920Z,1.11
2018-01-14T03:51:39.074Z,1.14
2018-01-14T03:52:44.242Z,1.16
2018-01-14T03:53:48.975Z,1.21
2018-01-14T03:54:53.134Z,1.26
2018-01-14T03:55:57.276Z,1.23
2018-01-14T03:57:01.464Z,1.23
2018-01-14T03:58:05.657Z,1.21
2018-01-14T03:59:10.107Z,1.19
2018-01-14T04:00:16.285Z,1.23
2018-01-14T04:01:20.490Z,1.28
2018-01-14T04:02:24.691Z,1.26
2018-01-14T04:03:28.861Z,1.25
2018-01-14T04:04:33.077Z,1.16
2018-01-14T04:05:37.274Z,1.20
2018-01-14T04:06:42.321Z,1.26
2018-01-14T04:07:47.523Z,1.19
2018-01-14T04:08:51.745Z,1.22
2018-01-14T04:09:55.984Z,1.20
2018-01-14T04:11:00.490Z,1.15
2018-01-14T04:12:04.603Z,1.11
2018-01-14T04:13:08.811Z,1.03
2018-01-14T04:14:13.093Z,1.07
2018-01-14T04:15:17.529Z,1.07
2018-01-14T04:16:22.085Z,1.03
2018-01-14T04:17:26.292Z,1.04
2018-01-14T04:18:30.610Z,1.05
2018-01-14T04:19:34.780Z,1.05
2018-01-14T04:20:39.145Z,1.00
2018-01-14T04:21:43.793Z,0.96
2018-01-14T04:22:48.148Z,0.97
2018-01-14T04:23:52.765Z,1.02
2018-01-14T04:24:57.082Z,1.08
2018-01-14T04:26:01.418Z,1.09
2018-01-14T04:27:05.634Z,1.10
2018-01-14T04:28:09.783Z,1.14
2018-01-14T04:29:14.392Z,1.15
2018-01-14T04:30:18.748Z,1.16
2018-01-14T04:31:22.894Z,1.18
2018-01-14T04:32:27.027Z,1.13
2018-01-14T04:33:31.304Z,1.13
2018-01-14T04:34:35.561Z,1.14
2018-01-14T04:35:40.108Z,1.14
2018-01-14T04:36:45.070Z,1.17
2018-01-14T04:37:49.362Z,1.15
2018-01-14T04:38:53.509Z,1.15
2018-01-14T04:39:57.718Z,1.12
2018-01-14T04:41:01.885Z,1.08
2018-01-14T04:42:06.399Z,1.11
2018-01-14T04:43:10.575Z,1.14
2018-01-14T04:44:14.745Z,1.10
2018-01-14T04:45:19.258Z,1.09
2018-01-14T04:46:23.445Z,1.09
2018-01-14T04:47:27.682Z,1.06
2018-01-14T04:48:32.176Z,1.05
2018-01-14T04:49:36.377Z,1.13
2018-01-14T04:50:40.615Z,1.08
2018-01-14T04:51:44.835Z,1.11
2018-01-14T04:52:49.132Z,1.10
2018-01-14T04:53:53.271Z,1.14
2018-01-14T04:54:58.086Z,1.11
2018-01-14T04:56:02.264Z,1.17
2018-01-14T04:57:06.459Z,1.19
2018-01-14T04:58:10.694Z,1.21
2018-01-14T04:59:14.844Z,1.22
2018-01-14T05:00:19.212Z,1.19
2018-01-14T05:01:23.420Z,1.21
2018-01-14T05:02:27.525Z,1.25
2018-01-14T05:03:31.735Z,1.25
2018-01-14T05:04:36.540Z,1.27
2018-01-14T05:05:40.734Z,1.20
2018-01-14T05:06:46.089Z,1.17
2018-01-14T05:07:50.407Z,1.15
2018-01-14T05:08:54.629Z,1.22
2018-01-14T05:09:58.813Z,1.22
2018-01-14T05:11:03.016Z,1.22
2018-01-14T05:12:07.231Z,1.27
2018-01-14T05:13:12.182Z,1.24
2018-01-14T05:14:16.321Z,1.20
2018-01-14T05:15:20.651Z,1.12
2018-01-14T05:16:24.943Z,1.12
2018-01-14T05:17:29.166Z,1.09
2018-01-14T05:18:33.388Z,1.17
2018-01-14T05:19:37.842Z,1.12
2018-01-14T05:20:42.013Z,1.08
2018-01-14T05:21:47.021Z,1.02
2018-01-14T05:22:51.267Z,1.05
2018-01-14T05:23:55.553Z,1.10
2018-01-14T05:24:59.782Z,1.15
2018-01-14T05:26:03.937Z,1.11
2018-01-14T05:27:08.144Z,1.05
2018-01-14T05:28:12.270Z,1.12
2018-01-14T05:29:16.511Z,1.09
2018-01-14T05:30:20.867Z,1.04
2018-01-14T05:31:25.004Z,1.04
2018-01-14T05:32:29.526Z,1.07
2018-01-14T05:33:33.693Z,1.09
2018-01-14T05:34:37.938Z,1.09
2018-01-14T05:35:43.138Z,1.13
2018-01-14T05:36:48.271Z,1.05
2018-01-14T05:37:52.772Z,1.05
2018-01-14T05:38:56.954Z,1.04
2018-01-14T05:40:01.246Z,1.07
2018-01-14T05:41:05.448Z,1.06
2018-01-14T05:42:09.618Z,1.06
2018-01-14T05:43:13.801Z,1.06
2018-01-14T05:44:18.229Z,1.03
2018-01-14T05:45:22.745Z,1.05
2018-01-14T05:46:26.983Z,1.10
2018-01-14T05:47:31.192Z,1.14
2018-01-14T05:48:35.325Z,1.08
2018-01-14T05:49:40.702Z,1.07
2018-01-14T05:50:45.629Z,1.14
2018-01-14T05:51:50.635Z,1.16
2018-01-14T05:52:54.941Z,1.16
2018-01-14T05:53:59.102Z,1.15
2018-01-14T05:55:03.382Z,1.18
2018-01-14T05:56:07.911Z,1.18
2018-01-14T05:57:12.024Z,1.13
2018-01-14T05:58:16.169Z,1.11
2018-01-14T05:59:20.466Z,1.15
2018-01-14T06:00:25.305Z,1.08
2018-01-14T06:01:29.463Z,1.05
2018-01-14T06:02:33.770Z,1.06
2018-01-14T06:03:37.970Z,1.07
2018-01-14T06:04:42.162Z,1.09
2018-01-14T06:05:46.330Z,1.15
2018-01-14T06:06:51.454Z,1.22
2018-01-14T06:07:55.705Z,1.26
2018-01-14T06:09:00.204Z,1.20
2018-01-14T06:10:04.508Z,1.13
2018-01-14T06:11:08.765Z,1.20
2018-01-14T06:12:12.903Z,1.19
2018-01-14T06:13:17.028Z,1.19
2018-01-14T06:14:21.167Z,1.14
2018-01-14T06:15:26.476Z,1.13
2018-01-14T06:16:30.782Z,1.10
2018-01-14T06:17:34.901Z,1.10
2018-01-14T06:18:39.048Z,1.09
2018-01-14T06:19:43.422Z,1.08
2018-01-14T06:20:47.570Z,1.03
2018-01-14T06:21:53.035Z,1.02
2018-01-14T06:22:57.214Z,1.06
2018-01-14T06:24:01.461Z,1.09
2018-01-14T06:25:05.648Z,1.08
2018-01-14T06:26:09.932Z,1.08
2018-01-14T06:27:14.128Z,1.09
2018-01-14T06:28:18.634Z,1.09
2018-01-14T06:29:22.870Z,1.03
2018-01-14T06:30:28.366Z,1.00
2018-01-14T06:31:33.246Z,1.03
2018-01-14T06:32:37.514Z,1.06
2018-01-14T06:33:41.774Z,1.07
2018-01-14T06:34:46.740Z,1.13
2018-01-14T06:35:51.493Z,1.11
2018-01-14T06:36:55.703Z,1.10
2018-01-14T06:37:59.968Z,1.12
2018-01-14T06:39:04.289Z,1.15
2018-01-14T06:40:08.445Z,1.17
2018-01-14T06:41:12.975Z,1.14
2018-01-14T06:42:17.175Z,1.09
2018-01-14T06:43:21.477Z,1.09
2018-01-14T06:44:25.675Z,1.06
2018-01-14T06:45:30.110Z,1.12
2018-01-14T06:46:34.631Z,1.15
2018-01-14T06:47:38.774Z,1.16
2018-01-14T06:48:43.275Z,1.15
2018-01-14T06:49:47.961Z,1.21
2018-01-14T06:50:52.146Z,1.27
2018-01-14T06:51:56.401Z,1.28
2018-01-14T06:53:00.971Z,1.33
2018-01-14T06:54:05.210Z,1.28
2018-01-14T06:55:09.436Z,1.18
2018-01-14T06:56:13.590Z,1.15
2018-01-14T06:57:17.859Z,1.13
2018-01-14T06:58:22.059Z,1.17
2018-01-14T06:59:26.350Z,1.19
2018-01-14T07:00:30.778Z,1.20
2018-01-14T07:01:34.995Z,1.19
2018-01-14T07:02:39.222Z,1.15
2018-01-14T07:03:43.726Z,1.18
2018-01-14T07:04:47.978Z,1.19
2018-01-14T07:05:52.178Z,1.14
2018-01-14T07:06:56.313Z,1.07
2018-01-14T07:08:00.528Z,1.07
2018-01-14T07:09:05.310Z,1.14
2018-01-14T07:10:09.920Z,1.17
2018-01-14T07:11:14.186Z,1.17
2018-01-14T07:12:18.334Z,1.18
2018-01-14T07:13:22.612Z,1.19
2018-01-14T07:14:26.836Z,1.21
2018-01-14T07:15:31.375Z,1.24
2018-01-14T07:16:35.903Z,1.23
2018-01-14T07:17:40.078Z,1.23
2018-01-14T07:18:44.255Z,1.23
2018-01-14T07:19:49.385Z,1.20
2018-01-14T07:20:53.639Z,1.22
2018-01-14T07:21:57.807Z,1.23
2018-01-14T07:23:02.019Z,1.28
2018-01-14T07:24:06.192Z,1.27
2018-01-14T07:25:10.577Z,1.22
2018-01-14T07:26:14.770Z,1.19
2018-01-14T07:27:19.002Z,1.15
2018-01-14T07:28:23.196Z,1.09
2018-01-14T07:29:27.638Z,1.03
2018-01-14T07:30:32.203Z,1.02
2018-01-14T07:31:36.522Z,1.04
2018-01-14T07:32:40.711Z,1.07
2018-01-14T07:33:44.955Z,1.09
2018-01-14T07:34:49.184Z,1.14
2018-01-14T07:35:53.794Z,1.11
2018-01-14T07:36:58.050Z,1.09
2018-01-14T07:38:02.262Z,1.10
2018-01-14T07:39:06.623Z,1.14
2018-01-14T07:40:10.755Z,1.15
2018-01-14T07:41:15.016Z,1.11
2018-01-14T07:42:19.655Z,1.06
2018-01-14T07:43:23.872Z,1.03
2018-01-14T07:44:28.036Z,1.03
2018-01-14T07:45:32.700Z,1.05
2018-01-14T07:46:37.395Z,1.08
2018-01-14T07:47:41.603Z,1.15
2018-01-14T07:48:46.863Z,1.19
2018-01-14T07:49:51.900Z,1.18
2018-01-14T07:50:56.141Z,1.19
2018-01-14T07:52:00.411Z,1.21
2018-01-14T07:53:04.632Z,1.15
2018-01-14T07:54:08.832Z,1.16
2018-01-14T07:55:13.055Z,1.18
2018-01-14T07:56:17.197Z,1.23
2018-01-14T07:57:21.326Z,1.24
2018-01-14T07:58:25.611Z,1.18
2018-01-14T07:59:30.616Z,1.17
2018-01-14T08:00:35.521Z,1.18
2018-01-14T08:01:39.727Z,1.19
2018-01-14T08:02:44.622Z,1.07
2018-01-14T08:03:48.927Z,1.10
2018-01-14T08:04:53.686Z,1.12
2018-01-14T08:05:57.906Z,1.11
2018-01-14T08:07:02.426Z,1.15
2018-01-14T08:08:06.661Z,1.10
2018-01-14T08:09:10.818Z,1.07
2018-01-14T08:10:14.996Z,1.05
2018-01-14T08:11:19.731Z,1.02
2018-01-14T08:12:24.219Z,1.07
2018-01-14T08:13:28.558Z,1.09
2018-01-14T08:14:32.790Z,1.09
2018-01-14T08:15:37.088Z,1.12
2018-01-14T08:16:41.848Z,1.14
2018-01-14T08:17:46.882Z,1.08
2018-01-14T08:18:52.396Z,1.07
2018-01-14T08:19:56.648Z,1.10
2018-01-14T08:21:00.890Z,1.11
2018-01-14T08:22:05.218Z,1.16
2018-01-14T08:23:09.548Z,1.22
2018-01-14T08:24:13.791Z,1.24
2018-01-14T08:25:18.251Z,1.16
2018-01-14T08:26:22.526Z,1.10
2018-01-14T08:27:26.742Z,1.06
2018-01-14T08:28:31.088Z,1.08
2018-01-14T08:29:35.285Z,1.08
2018-01-14T08:30:39.653Z,1.11
2018-01-14T08:31:45.043Z,1.15
2018-01-14T08:32:50.400Z,1.14
2018-01-14T08:33:55.561Z,1.16
2018-01-14T08:34:59.896Z,1.16
2018-01-14T08:36:05.130Z,1.08
2018-01-14T08:37:09.395Z,1.09
2018-01-14T08:38:13.858Z,1.07
2018-01-14T08:39:18.151Z,1.08
2018-01-14T08:40:22.381Z,1.07
2018-01-14T08:41:26.611Z,1.08
2018-01-14T08:42:30.852Z,1.10
2018-01-14T08:43:35.145Z,1.08
2018-01-14T08:44:40.014Z,1.12
2018-01-14T08:45:45.068Z,1.12
2018-01-14T08:46:50.288Z,1.10
2018-01-14T08:47:55.459Z,1.10
2018-01-14T08:48:59.730Z,1.06
2018-01-14T08:50:03.996Z,1.07
2018-01-14T08:51:08.554Z,1.16
2018-01-14T08:52:12.815Z,1.20
2018-01-14T08:53:17.066Z,1.16
2018-01-14T08:54:21.213Z,1.10
2018-01-14T08:55:25.533Z,1.15
2018-01-14T08:56:29.837Z,1.21
2018-01-14T08:57:34.385Z,1.16
2018-01-14T08:58:38.596Z,1.09
2018-01-14T08:59:42.788Z,1.13
2018-01-14T09:00:48.254Z,1.11
2018-01-14T09:01:53.431Z,1.18
2018-01-14T09:02:57.686Z,1.13
2018-01-14T09:04:01.932Z,1.10
2018-01-14T09:05:06.207Z,1.11
2018-01-14T09:06:10.380Z,1.14
2018-01-14T09:07:14.737Z,1.23
2018-01-14T09:08:18.972Z,1.26
2018-01-14T09:09:23.163Z,1.31
2018-01-14T09:10:27.662Z,1.39
2018-01-14T09:11:31.934Z,1.34
2018-01-14T09:12:36.367Z,1.24
2018-01-14T09:13:40.567Z,1.29
2018-01-14T09:14:44.739Z,1.21
2018-01-14T09:15:49.264Z,1.21
2018-01-14T09:16:54.340Z,1.22
2018-01-14T09:17:58.651Z,1.16
2018-01-14T09:19:02.924Z,1.17
2018-01-14T09:20:07.649Z,1.23
2018-01-14T09:21:11.880Z,1.27
2018-01-14T09:22:16.774Z,1.25
2018-01-14T09:23:21.499Z,1.27
2018-01-14T09:24:26.387Z,1.21
2018-01-14T09:25:30.609Z,1.23
2018-01-14T09:26:34.838Z,1.33
2018-01-14T09:27:39.216Z,1.37
2018-01-14T09:28:44.437Z,1.49
2018-01-14T09:29:49.034Z,1.49
2018-01-14T09:30:56.103Z,1.55
2018-01-14T09:32:00.474Z,1.60
2018-01-14T09:33:05.189Z,1.61
2018-01-14T09:34:09.776Z,1.54
2018-01-14T09:35:14.042Z,1.40
2018-01-14T09:36:18.314Z,1.36
2018-01-14T09:37:22.624Z,1.34
2018-01-14T09:38:27.011Z,1.46
2018-01-14T09:39:31.318Z,1.52
2018-01-14T09:40:36.838Z,1.55
2018-01-14T09:41:41.059Z,1.68
2018-01-14T09:42:46.520Z,1.63
2018-01-14T09:43:50.786Z,1.57
2018-01-14T09:44:55.086Z,1.57
2018-01-14T09:45:59.355Z,1.63
2018-01-14T09:47:03.941Z,1.72
2018-01-14T09:48:08.339Z,1.87
2018-01-14T09:49:12.784Z,1.96
2018-01-14T09:50:17.144Z,2.16
2018-01-14T09:51:21.439Z,2.27
2018-01-14T09:52:25.759Z,2.27
2018-01-14T09:53:31.036Z,2.18
2018-01-14T09:54:35.249Z,2.19
2018-01-14T09:55:39.690Z,2.11
2018-01-14T09:56:43.979Z,2.24
2018-01-14T09:57:48.353Z,2.25
2018-01-14T09:58:53.348Z,2.21
2018-01-14T09:59:57.905Z,2.12
2018-01-14T10:01:02.708Z,2.17
2018-01-14T10:02:06.994Z,2.23
2018-01-14T10:03:11.254Z,2.27
2018-01-14T10:04:15.529Z,2.34
2018-01-14T10:05:19.853Z,2.55
2018-01-14T10:06:24.583Z,2.56
2018-01-14T10:07:28.853Z,2.43
2018-01-14T10:08:33.067Z,2.44
2018-01-14T10:09:37.341Z,2.57
2018-01-14T10:10:41.575Z,2.73
2018-01-14T10:11:46.905Z,2.81
2018-01-14T10:12:52.240Z,2.91
2018-01-14T10:13:56.540Z,3.06
2018-01-14T10:15:00.903Z,3.24
2018-01-14T10:16:05.374Z,3.36
2018-01-14T10:17:10.875Z,3.43
2018-01-14T10:18:15.214Z,3.38
2018-01-14T10:19:19.784Z,3.25
2018-01-14T10:20:24.056Z,3.27
2018-01-14T10:21:28.359Z,3.38
2018-01-14T10:22:32.659Z,3.24
2018-01-14T10:23:36.995Z,3.33
2018-01-14T10:24:41.243Z,3.38
2018-01-14T10:25:46.696Z,3.46
2018-01-14T10:26:51.925Z,3.68
2018-01-14T10:27:56.263Z,3.87
2018-01-14T10:29:00.506Z,3.88
2018-01-14T10:30:07.043Z,3.80
2018-01-14T10:31:13.074Z,3.67
2018-01-14T10:32:17.400Z,3.61
2018-01-14T10:33:21.660Z,3.27
2018-01-14T10:34:26.041Z,3.05
2018-01-14T10:35:30.267Z,3.09
2018-01-14T10:36:34.523Z,3.28
2018-01-14T10:37:38.827Z,3.40
2018-01-14T10:38:43.264Z,3.51
2018-01-14T10:39:47.525Z,3.42
2018-01-14T10:40:52.640Z,3.44
2018-01-14T10:41:57.051Z,3.21
2018-01-14T10:43:01.964Z,3.30
2018-01-14T10:44:06.286Z,3.30
2018-01-14T10:45:12.570Z,3.29
2018-01-14T10:46:16.826Z,3.16
2018-01-14T10:47:21.205Z,3.22
2018-01-14T10:48:25.651Z,3.49
2018-01-14T10:49:29.983Z,3.86
2018-01-14T10:50:34.292Z,4.05
2018-01-14T10:51:38.654Z,4.19
2018-01-14T10:52:43.303Z,4.25
2018-01-14T10:53:48.872Z,4.19
2018-01-14T10:54:54.068Z,4.10
2018-01-14T10:55:59.343Z,3.88
2018-01-14T10:57:03.595Z,3.94
2018-01-14T10:58:08.011Z,4.24
2018-01-14T10:59:12.377Z,4.63
2018-01-14T11:00:17.314Z,4.44
2018-01-14T11:01:25.580Z,4.35
2018-01-14T11:02:29.985Z,4.25
2018-01-14T11:03:34.639Z,4.36
2018-01-14T11:04:39.010Z,4.58
2018-01-14T11:05:43.513Z,4.66
2018-01-14T11:06:48.374Z,4.78
2018-01-14T11:07:53.039Z,4.97
2018-01-14T11:08:57.993Z,4.88
2018-01-14T11:10:02.291Z,4.93
2018-01-14T11:11:06.665Z,5.01
2018-01-14T11:12:11.074Z,4.65
2018-01-14T11:13:15.991Z,4.43
2018-01-14T11:14:20.342Z,4.50
2018-01-14T11:15:25.435Z,4.37
2018-01-14T11:16:29.783Z,4.60
2018-01-14T11:17:34.130Z,4.41
2018-01-14T11:18:39.002Z,4.25
2018-01-14T11:19:43.393Z,4.50
2018-01-14T11:20:48.107Z,4.28
2018-01-14T11:21:52.574Z,4.11
2018-01-14T11:22:57.898Z,4.31
2018-01-14T11:24:02.379Z,4.58
2018-01-14T11:25:08.007Z,4.90
2018-01-14T11:26:12.576Z,4.88
2018-01-14T11:27:18.093Z,5.09
2018-01-14T11:28:22.516Z,5.35
2018-01-14T11:29:35.493Z,4.97
2018-01-14T11:30:40.654Z,4.89
2018-01-14T11:31:45.263Z,4.76
2018-01-14T11:32:49.963Z,4.93
2018-01-14T11:33:54.426Z,5.11
2018-01-14T11:34:59.666Z,4.81
2018-01-14T11:36:04.227Z,4.68
2018-01-14T11:37:08.980Z,4.58
2018-01-14T11:38:13.910Z,4.33
2018-01-14T11:39:20.224Z,4.55
2018-01-14T11:40:25.633Z,4.33
2018-01-14T11:41:31.208Z,4.47
2018-01-14T11:42:36.920Z,4.50
2018-01-14T11:43:42.379Z,4.60
2018-01-14T11:44:47.856Z,4.42
2018-01-14T11:45:52.658Z,4.41
2018-01-14T11:46:57.320Z,4.57
2018-01-14T11:48:02.062Z,4.35
2018-01-14T11:49:08.471Z,4.17
2018-01-14T11:50:13.132Z,4.29
2018-01-14T11:51:18.423Z,4.15
2018-01-14T11:52:22.899Z,4.16
2018-01-14T11:53:27.796Z,4.40
2018-01-14T11:54:32.218Z,4.85
2018-01-14T11:55:38.517Z,4.52
2018-01-14T11:56:43.684Z,4.53
2018-01-14T11:57:48.152Z,4.70
2018-01-14T11:58:52.960Z,4.95
2018-01-14T11:59:58.557Z,5.14
2018-01-14T12:01:03.129Z,5.09
2018-01-14T12:02:07.953Z,4.75
2018-01-14T12:03:12.495Z,4.49
2018-01-14T12:04:17.206Z,4.49
2018-01-14T12:05:21.894Z,4.64
2018-01-14T12:06:26.365Z,4.49
2018-01-14T12:07:30.973Z,4.53
2018-01-14T12:08:38.140Z,4.33
2018-01-14T12:09:43.737Z,4.05
2018-01-14T12:10:48.947Z,4.10
2018-01-14T12:11:54.976Z,4.17
2018-01-14T12:13:00.240Z,4.35
2018-01-14T12:14:06.533Z,4.32
2018-01-14T12:15:13.611Z,4.29
2018-01-14T12:16:20.627Z,4.93
2018-01-14T12:17:25.651Z,5.10
2018-01-14T12:18:30.074Z,5.20
2018-01-14T12:19:34.536Z,5.92
2018-01-14T12:20:39.589Z,5.78
2018-01-14T12:21:43.944Z,5.65
2018-01-14T12:22:48.360Z,5.78
2018-01-14T12:23:53.605Z,5.98
2018-01-14T12:24:59.473Z,5.67
2018-01-14T12:26:04.422Z,5.77
2018-01-14T12:27:09.976Z,5.42
2018-01-14T12:28:14.525Z,4.93
2018-01-14T12:29:20.075Z,4.96
2018-01-14T12:30:25.660Z,4.88
2018-01-14T12:31:31.725Z,5.57
2018-01-14T12:32:44.668Z,5.75
2018-01-14T12:33:58.838Z,6.05
2018-01-14T12:35:03.959Z,5.88
2018-01-14T12:36:09.656Z,5.29
2018-01-14T12:37:15.137Z,4.94
2018-01-14T12:38:19.592Z,4.98
2018-01-14T12:39:24.079Z,4.78
2018-01-14T12:40:30.080Z,4.80
2018-01-14T12:41:34.547Z,5.01
2018-01-14T12:42:39.574Z,5.36
2018-01-14T12:43:45.546Z,5.48
2018-01-14T12:44:51.936Z,5.70
2018-01-14T12:45:57.389Z,5.42
2018-01-14T12:47:01.717Z,4.80
2018-01-14T12:48:06.278Z,4.53
2018-01-14T12:49:10.592Z,4.62
2018-01-14T12:50:15.400Z,4.24
2018-01-14T12:51:19.681Z,4.66
2018-01-14T12:52:24.029Z,4.64
2018-01-14T12:53:29.224Z,4.31
2018-01-14T12:54:34.421Z,4.18
2018-01-14T12:55:39.704Z,4.34
2018-01-14T12:56:44.298Z,4.60
2018-01-14T12:57:48.699Z,4.13
2018-01-14T12:58:53.180Z,4.37
2018-01-14T12:59:58.997Z,4.08
2018-01-14T13:01:04.016Z,3.96
2018-01-14T13:02:09.769Z,3.94
2018-01-14T13:03:14.918Z,4.54
2018-01-14T13:04:20.958Z,4.60
2018-01-14T13:05:26.178Z,4.72
2018-01-14T13:06:33.096Z,4.97
2018-01-14T13:07:39.175Z,5.24
2018-01-14T13:08:45.274Z,5.38
2018-01-14T13:09:51.820Z,5.18
2018-01-14T13:10:57.165Z,4.81
2018-01-14T13:12:01.840Z,4.30
2018-01-14T13:13:07.844Z,3.88
2018-01-14T13:14:14.008Z,3.99
2018-01-14T13:15:19.232Z,3.77
2018-01-14T13:16:24.790Z,3.90
2018-01-14T13:17:30.007Z,4.45
2018-01-14T13:18:34.321Z,4.67
2018-01-14T13:19:38.918Z,5.09
2018-01-14T13:20:43.798Z,4.37
2018-01-14T13:21:49.918Z,3.86
2018-01-14T13:22:54.289Z,4.11
2018-01-14T13:23:59.063Z,4.53
2018-01-14T13:25:04.342Z,4.37
2018-01-14T13:26:09.611Z,4.16
2018-01-14T13:27:14.276Z,4.23
2018-01-14T13:28:21.061Z,4.13
2018-01-14T13:29:28.645Z,4.30
2018-01-14T13:30:33.543Z,4.21
2018-01-14T13:31:39.079Z,4.17
2018-01-14T13:32:44.146Z,3.97
2018-01-14T13:33:49.400Z,4.04
2018-01-14T13:34:54.010Z,4.00
2018-01-14T13:35:59.782Z,4.11
2018-01-14T13:37:04.788Z,4.51
2018-01-14T13:38:10.606Z,4.19
2018-01-14T13:39:18.686Z,4.12
2018-01-14T13:40:25.697Z,3.89
2018-01-14T13:41:31.329Z,3.75
2018-01-14T13:42:36.588Z,3.67
2018-01-14T13:43:42.116Z,3.83
2018-01-14T13:44:46.538Z,4.21
2018-01-14T13:45:51.785Z,4.28
2018-01-14T13:46:56.807Z,4.34
2018-01-14T13:48:03.556Z,3.83
2018-01-14T13:49:08.827Z,3.75
2018-01-14T13:50:14.216Z,3.77
2018-01-14T13:51:19.371Z,3.81
2018-01-14T13:52:23.995Z,3.87
2018-01-14T13:53:28.355Z,3.81
2018-01-14T13:54:32.816Z,4.03
2018-01-14T13:55:37.269Z,3.99
2018-01-14T13:56:42.023Z,4.54
2018-01-14T13:57:46.377Z,4.32
2018-01-14T13:58:51.368Z,4.44
2018-01-14T13:59:56.818Z,4.13
2018-01-14T14:01:02.532Z,4.04
2018-01-14T14:02:06.906Z,4.01
2018-01-14T14:03:11.247Z,4.12
2018-01-14T14:04:15.618Z,4.05
2018-01-14T14:05:20.323Z,3.92
2018-01-14T14:06:24.578Z,3.91
2018-01-14T14:07:29.016Z,4.35
2018-01-14T14:08:33.484Z,4.54
2018-01-14T14:09:39.460Z,4.49
2018-01-14T14:10:43.793Z,4.32
2018-01-14T14:11:48.230Z,4.30
2018-01-14T14:12:52.777Z,4.02
2018-01-14T14:13:58.072Z,3.94
2018-01-14T14:15:04.788Z,4.05
2018-01-14T14:16:09.584Z,4.16
2018-01-14T14:17:14.022Z,4.39
2018-01-14T14:18:19.744Z,4.71
2018-01-14T14:19:24.259Z,4.18
2018-01-14T14:20:28.627Z,4.18
2018-01-14T14:21:33.163Z,3.91